createdAt,value
2023-04-01T04:00:31.165Z,0.00
2023-04-01T04:01:32.145Z,0.00
2023-04-01T04:02:32.243Z,0.00
2023-04-01T04:03:32.240Z,0.00
2023-04-01T04:04:32.134Z,0.00
2023-04-01T04:05:32.448Z,0.00
2023-04-01T04:06:32.100Z,0.00
2023-04-01T04:07:32.074Z,0.00
2023-04-01T04:08:32.068Z,0.00
2023-04-01T04:09:32.053Z,0.00
2023-04-01T04:10:32.045Z,0.00
2023-04-01T04:11:32.030Z,0.00
2023-04-01T04:12:32.024Z,0.00
2023-04-01T04:13:32.031Z,0.00
2023-04-01T04:14:32.026Z,0.00
2023-04-01T04:15:32.246Z,0.00
2023-04-01T04:16:31.985Z,0.00
2023-04-01T04:17:32.012Z,0.00
2023-04-01T04:18:31.921Z,1.00
2023-04-01T04:19:31.966Z,0.00
2023-04-01T04:20:31.893Z,1.00
2023-04-01T04:21:31.902Z,1.00
2023-04-01T04:22:31.857Z,1.00
2023-04-01T04:23:31.868Z,2.00
2023-04-01T04:24:31.832Z,2.00
2023-04-01T04:25:32.045Z,3.00
2023-04-01T04:26:31.806Z,1.00
2023-04-01T04:27:31.823Z,2.00
2023-04-01T04:28:31.813Z,2.00
2023-04-01T04:29:31.835Z,4.00
2023-04-01T04:30:31.777Z,3.00
2023-04-01T04:31:31.788Z,9.00
2023-04-01T04:32:31.772Z,6.00
2023-04-01T04:33:31.779Z,6.00
2023-04-01T04:34:31.738Z,9.00
2023-04-01T04:35:32.030Z,10.00
2023-04-01T04:36:31.757Z,10.00
2023-04-01T04:37:31.697Z,10.00
2023-04-01T04:38:31.705Z,15.00
2023-04-01T04:39:31.678Z,13.00
2023-04-01T04:40:31.674Z,18.00
2023-04-01T04:41:31.694Z,21.00
2023-04-01T04:42:31.639Z,26.00
2023-04-01T04:43:31.651Z,34.00
2023-04-01T04:44:31.636Z,38.00
2023-04-01T04:45:31.966Z,43.00
2023-04-01T04:46:31.637Z,47.00
2023-04-01T04:47:31.646Z,51.00
2023-04-01T04:48:31.620Z,57.00
2023-04-01T04:49:31.595Z,63.00
2023-04-01T04:50:31.567Z,67.00
2023-04-01T04:51:31.549Z,69.00
2023-04-01T04:52:31.540Z,76.00
2023-04-01T04:53:31.518Z,83.00
2023-04-01T04:54:31.534Z,89.00
2023-04-01T04:55:31.845Z,86.00
2023-04-01T04:56:31.505Z,92.00
2023-04-01T04:57:31.597Z,94.00
2023-04-01T04:58:31.484Z,106.00
2023-04-01T04:59:31.463Z,115.00
2023-04-01T05:00:31.454Z,124.00
2023-04-01T05:01:31.524Z,129.00
2023-04-01T05:02:31.512Z,133.00
2023-04-01T05:03:31.773Z,139.00
2023-04-01T05:04:31.493Z,144.00
2023-04-01T05:05:31.657Z,145.00
2023-04-01T05:06:31.387Z,146.00
2023-04-01T05:07:31.374Z,146.00
2023-04-01T05:08:31.424Z,147.00
2023-04-01T05:09:31.371Z,150.00
2023-04-01T05:10:31.359Z,154.00
2023-04-01T05:11:31.327Z,163.00
2023-04-01T05:12:31.332Z,164.00
2023-04-01T05:13:31.345Z,173.00
2023-04-01T05:14:31.321Z,171.00
2023-04-01T05:15:31.635Z,177.00
2023-04-01T05:16:31.324Z,186.00
2023-04-01T05:17:31.301Z,183.00
2023-04-01T05:18:31.263Z,188.00
2023-04-01T05:19:31.283Z,197.00
2023-04-01T05:20:31.268Z,202.00
2023-04-01T05:21:31.235Z,201.00
2023-04-01T05:22:31.224Z,200.00
2023-04-01T05:23:31.203Z,207.00
2023-04-01T05:24:31.241Z,214.00
2023-04-01T05:25:31.446Z,223.00
2023-04-01T05:26:31.170Z,222.00
2023-04-01T05:27:31.201Z,233.00
2023-04-01T05:28:31.152Z,234.00
2023-04-01T05:29:31.156Z,246.00
2023-04-01T05:30:31.126Z,254.00
2023-04-01T05:31:31.215Z,265.00
2023-04-01T05:32:31.135Z,279.00
2023-04-01T05:33:31.114Z,281.00
2023-04-01T05:34:31.102Z,288.00
2023-04-01T05:35:31.349Z,307.00
2023-04-01T05:36:31.103Z,329.00
2023-04-01T05:37:31.062Z,346.00
2023-04-01T05:38:31.063Z,358.00
2023-04-01T05:39:31.038Z,359.00
2023-04-01T05:40:31.061Z,358.00
2023-04-01T05:41:31.009Z,355.00
2023-04-01T05:42:30.998Z,359.00
2023-04-01T05:43:31.035Z,355.00
2023-04-01T05:44:31.005Z,343.00
2023-04-01T05:45:31.234Z,328.00
2023-04-01T05:46:31.060Z,306.00
2023-04-01T05:47:31.010Z,287.00
2023-04-01T05:48:30.946Z,272.00
2023-04-01T05:49:30.954Z,267.00
2023-04-01T05:50:30.957Z,262.00
2023-04-01T05:51:30.905Z,269.00
2023-04-01T05:52:30.900Z,271.00
2023-04-01T05:53:30.877Z,262.00
2023-04-01T05:54:30.881Z,257.00
2023-04-01T05:55:30.870Z,267.00
2023-04-01T05:56:30.868Z,269.00
2023-04-01T05:57:30.910Z,273.00
2023-04-01T05:58:30.833Z,262.00
2023-04-01T05:59:30.806Z,269.00
2023-04-01T06:00:30.818Z,276.00
2023-04-01T06:01:30.832Z,274.00
2023-04-01T06:02:30.872Z,282.00
2023-04-01T06:03:30.964Z,294.00
2023-04-01T06:04:30.863Z,286.00
2023-04-01T06:05:31.925Z,289.00
2023-04-01T06:06:30.737Z,288.00
2023-04-01T06:07:30.736Z,291.00
2023-04-01T06:08:31.327Z,299.00
2023-04-01T06:09:30.732Z,310.00
2023-04-01T06:10:30.706Z,323.00
2023-04-01T06:11:30.688Z,350.00
2023-04-01T06:12:30.698Z,380.00
2023-04-01T06:13:30.699Z,397.00
2023-04-01T06:14:30.682Z,412.00
2023-04-01T06:15:30.773Z,424.00
2023-04-01T06:16:30.682Z,430.00
2023-04-01T06:17:30.672Z,441.00
2023-04-01T06:18:30.630Z,437.00
2023-04-01T06:19:30.594Z,428.00
2023-04-01T06:20:30.610Z,424.00
2023-04-01T06:21:30.592Z,414.00
2023-04-01T06:22:30.619Z,429.00
2023-04-01T06:23:30.567Z,424.00
2023-04-01T06:24:30.551Z,431.00
2023-04-01T06:25:30.550Z,426.00
2023-04-01T06:26:30.580Z,438.00
2023-04-01T06:27:30.511Z,449.00
2023-04-01T06:28:30.507Z,460.00
2023-04-01T06:29:30.529Z,476.00
2023-04-01T06:30:30.501Z,489.00
2023-04-01T06:31:30.593Z,499.00
2023-04-01T06:32:30.506Z,506.00
2023-04-01T06:33:30.466Z,515.00
2023-04-01T06:34:30.529Z,526.00
2023-04-01T06:35:30.472Z,554.00
2023-04-01T06:36:30.513Z,587.00
2023-04-01T06:37:30.462Z,626.00
2023-04-01T06:38:30.416Z,656.00
2023-04-01T06:39:31.103Z,670.00
2023-04-01T06:40:30.382Z,698.00
2023-04-01T06:41:30.392Z,722.00
2023-04-01T06:42:30.382Z,762.00
2023-04-01T06:43:30.338Z,774.00
2023-04-01T06:44:30.345Z,803.00
2023-04-01T06:45:30.367Z,821.00
2023-04-01T06:46:30.385Z,826.00
2023-04-01T06:47:30.418Z,816.00
2023-04-01T06:48:30.315Z,799.00
2023-04-01T06:49:30.323Z,780.00
2023-04-01T06:50:30.270Z,780.00
2023-04-01T06:51:30.275Z,767.00
2023-04-01T06:52:30.262Z,774.00
2023-04-01T06:53:30.233Z,780.00
2023-04-01T06:54:30.224Z,796.00
2023-04-01T06:55:30.253Z,786.00
2023-04-01T06:56:30.242Z,834.00
2023-04-01T06:57:30.284Z,866.00
2023-04-01T06:58:30.191Z,912.00
2023-04-01T06:59:30.175Z,975.00
2023-04-01T07:00:30.201Z,993.00
2023-04-01T07:01:30.173Z,1014.00
2023-04-01T07:02:30.187Z,1081.00
2023-04-01T07:03:30.137Z,1107.00
2023-04-01T07:04:30.140Z,1119.00
2023-04-01T07:05:30.419Z,1145.00
2023-04-01T07:06:30.227Z,1202.00
2023-04-01T07:07:30.086Z,1266.00
2023-04-01T07:08:30.074Z,1373.00
2023-04-01T07:09:30.059Z,1469.00
2023-04-01T07:10:30.045Z,1499.00
2023-04-01T07:11:30.070Z,1582.00
2023-04-01T07:12:30.074Z,1683.00
2023-04-01T07:13:30.042Z,1767.00
2023-04-01T07:14:30.008Z,1807.00
2023-04-01T07:15:29.993Z,1817.00
2023-04-01T07:16:30.107Z,1820.00
2023-04-01T07:17:30.012Z,1817.00
2023-04-01T07:18:29.964Z,1808.00
2023-04-01T07:19:29.947Z,1809.00
2023-04-01T07:20:29.952Z,1877.00
2023-04-01T07:21:31.972Z,1980.00
2023-04-01T07:22:29.940Z,2058.00
2023-04-01T07:23:29.911Z,2066.00
2023-04-01T07:24:29.921Z,2038.00
2023-04-01T07:25:29.924Z,2076.00
2023-04-01T07:26:29.945Z,2068.00
2023-04-01T07:27:29.874Z,1973.00
2023-04-01T07:28:29.862Z,1934.00
2023-04-01T07:29:29.855Z,1888.00
2023-04-01T07:30:29.871Z,1950.00
2023-04-01T07:31:29.861Z,2032.00
2023-04-01T07:32:30.105Z,2035.00
2023-04-01T07:33:29.789Z,1989.00
2023-04-01T07:34:29.831Z,1995.00
2023-04-01T07:35:29.779Z,1971.00
2023-04-01T07:36:29.801Z,1947.00
2023-04-01T07:37:29.763Z,2091.00
2023-04-01T07:38:29.789Z,2224.00
2023-04-01T07:39:29.754Z,2278.00
2023-04-01T07:40:29.721Z,2358.00
2023-04-01T07:41:30.654Z,2420.00
2023-04-01T07:42:29.712Z,2440.00
2023-04-01T07:43:29.686Z,2478.00
2023-04-01T07:44:29.688Z,2601.00
2023-04-01T07:45:29.687Z,2671.00
2023-04-01T07:46:29.718Z,2774.00
2023-04-01T07:47:29.718Z,2944.00
2023-04-01T07:48:29.684Z,3098.00
2023-04-01T07:49:29.634Z,3238.00
2023-04-01T07:50:29.658Z,3341.00
2023-04-01T07:51:29.606Z,3496.00
2023-04-01T07:52:29.595Z,3605.00
2023-04-01T07:53:29.613Z,3543.00
2023-04-01T07:54:29.578Z,4000.00
2023-04-01T07:55:29.570Z,3754.00
2023-04-01T07:56:29.549Z,4682.00
2023-04-01T07:57:29.589Z,3984.00
2023-04-01T07:58:29.605Z,3846.00
2023-04-01T07:59:29.526Z,3867.00
2023-04-01T08:00:29.565Z,3821.00
2023-04-01T08:01:29.596Z,3547.00
2023-04-01T08:02:29.554Z,1960.00
2023-04-01T08:03:29.605Z,5964.00
2023-04-01T08:04:29.524Z,4902.00
2023-04-01T08:05:29.452Z,6102.00
2023-04-01T08:06:29.469Z,3602.00
2023-04-01T08:07:29.430Z,6064.00
2023-04-01T08:08:29.437Z,3765.00
2023-04-01T08:09:29.430Z,3781.00
2023-04-01T08:10:29.421Z,3378.00
2023-04-01T08:11:29.391Z,3215.00
2023-04-01T08:12:29.392Z,3101.00
2023-04-01T08:13:29.400Z,3008.00
2023-04-01T08:14:29.401Z,2971.00
2023-04-01T08:15:29.348Z,2855.00
2023-04-01T08:16:29.369Z,2772.00
2023-04-01T08:17:29.369Z,2807.00
2023-04-01T08:18:29.312Z,2755.00
2023-04-01T08:19:29.302Z,2656.00
2023-04-01T08:20:29.321Z,2536.00
2023-04-01T08:21:29.278Z,2388.00
2023-04-01T08:22:29.309Z,2303.00
2023-04-01T08:23:29.258Z,2274.00
2023-04-01T08:24:34.447Z,2214.00
2023-04-01T08:25:29.248Z,2144.00
2023-04-01T08:26:29.229Z,1991.00
2023-04-01T08:27:29.225Z,1867.00
2023-04-01T08:28:29.217Z,1803.00
2023-04-01T08:29:29.207Z,1753.00
2023-04-01T08:30:29.199Z,1717.00
2023-04-01T08:31:29.367Z,1635.00
2023-04-01T08:32:29.195Z,1600.00
2023-04-01T08:33:29.150Z,1542.00
2023-04-01T08:34:29.151Z,1448.00
2023-04-01T08:35:31.708Z,1323.00
2023-04-01T08:36:29.187Z,1211.00
2023-04-01T08:37:29.096Z,1088.00
2023-04-01T08:38:29.287Z,1017.00
2023-04-01T08:39:29.103Z,938.00
2023-04-01T08:40:29.096Z,854.00
2023-04-01T08:41:29.070Z,780.00
2023-04-01T08:42:29.046Z,696.00
2023-04-01T08:43:29.025Z,600.00
2023-04-01T08:44:29.060Z,521.00
2023-04-01T08:45:29.040Z,470.00
2023-04-01T08:46:29.076Z,438.00
2023-04-01T08:47:28.998Z,415.00
2023-04-01T08:48:28.987Z,405.00
2023-04-01T08:49:28.978Z,396.00
2023-04-01T08:50:28.971Z,396.00
2023-04-01T08:51:28.959Z,399.00
2023-04-01T08:52:28.958Z,391.00
2023-04-01T08:53:28.910Z,374.00
2023-04-01T08:54:28.930Z,358.00
2023-04-01T08:55:28.951Z,348.00
2023-04-01T08:56:28.898Z,381.00
2023-04-01T08:57:28.947Z,446.00
2023-04-01T08:58:28.888Z,501.00
2023-04-01T08:59:28.874Z,564.00
2023-04-01T09:00:28.859Z,593.00
2023-04-01T09:01:28.839Z,641.00
2023-04-01T09:02:28.956Z,677.00
2023-04-01T09:03:28.938Z,738.00
2023-04-01T09:04:28.864Z,733.00
2023-04-01T09:05:28.818Z,718.00
2023-04-01T09:06:28.788Z,787.00
2023-04-01T09:07:28.789Z,894.00
2023-04-01T09:08:28.807Z,998.00
2023-04-01T09:09:28.763Z,989.00
2023-04-01T09:10:28.753Z,1055.00
2023-04-01T09:11:28.746Z,1150.00
2023-04-01T09:12:28.749Z,1041.00
2023-04-01T09:13:28.727Z,1132.00
2023-04-01T09:14:28.720Z,1287.00
2023-04-01T09:15:28.905Z,1338.00
2023-04-01T09:16:28.753Z,1285.00
2023-04-01T09:17:28.697Z,1287.00
2023-04-01T09:18:28.680Z,1307.00
2023-04-01T09:19:28.682Z,1173.00
2023-04-01T09:20:28.667Z,1183.00
2023-04-01T09:21:28.620Z,1153.00
2023-04-01T09:22:28.643Z,1081.00
2023-04-01T09:23:28.766Z,1009.00
2023-04-01T09:24:28.628Z,1071.00
2023-04-01T09:25:28.600Z,1169.00
2023-04-01T09:26:28.581Z,1110.00
2023-04-01T09:27:28.607Z,1110.00
2023-04-01T09:28:28.545Z,1143.00
2023-04-01T09:29:28.555Z,1136.00
2023-04-01T09:30:28.567Z,1179.00
2023-04-01T09:31:28.577Z,1294.00
2023-04-01T09:32:28.525Z,1413.00
2023-04-01T09:33:28.527Z,1321.00
2023-04-01T09:34:28.489Z,1267.00
2023-04-01T09:35:28.474Z,1460.00
2023-04-01T09:36:28.494Z,1624.00
2023-04-01T09:37:28.451Z,1650.00
2023-04-01T09:38:28.475Z,1894.00
2023-04-01T09:39:28.492Z,1873.00
2023-04-01T09:40:28.458Z,1903.00
2023-04-01T09:41:28.418Z,1671.00
2023-04-01T09:42:28.460Z,1377.00
2023-04-01T09:43:28.396Z,1412.00
2023-04-01T09:44:28.383Z,1704.00
2023-04-01T09:45:28.390Z,1501.00
2023-04-01T09:46:28.456Z,1344.00
2023-04-01T09:47:28.399Z,1707.00
2023-04-01T09:48:29.176Z,1425.00
2023-04-01T09:49:28.337Z,1688.00
2023-04-01T09:50:28.309Z,1721.00
2023-04-01T09:51:28.323Z,1600.00
2023-04-01T09:52:28.315Z,1500.00
2023-04-01T09:53:28.281Z,1641.00
2023-04-01T09:54:28.320Z,1604.00
2023-04-01T09:55:28.269Z,1799.00
2023-04-01T09:56:28.253Z,1851.00
2023-04-01T09:57:28.334Z,1727.00
2023-04-01T09:58:28.298Z,1745.00
2023-04-01T09:59:28.213Z,1849.00
2023-04-01T10:00:28.201Z,1875.00
2023-04-01T10:01:28.241Z,2023.00
2023-04-01T10:02:28.271Z,2027.00
2023-04-01T10:03:29.666Z,1898.00
2023-04-01T10:04:28.178Z,2061.00
2023-04-01T10:05:28.175Z,2366.00
2023-04-01T10:06:28.141Z,2365.00
2023-04-01T10:07:28.136Z,2245.00
2023-04-01T10:08:28.182Z,2428.00
2023-04-01T10:09:28.133Z,2498.00
2023-04-01T10:10:28.302Z,2460.00
2023-04-01T10:11:28.134Z,2396.00
2023-04-01T10:12:28.079Z,2467.00
2023-04-01T10:13:28.125Z,2669.00
2023-04-01T10:14:28.082Z,2756.00
2023-04-01T10:15:28.054Z,2718.00
2023-04-01T10:16:28.069Z,2755.00
2023-04-01T10:17:28.051Z,2661.00
2023-04-01T10:18:28.098Z,2718.00
2023-04-01T10:19:28.001Z,2922.00
2023-04-01T10:20:27.983Z,2619.00
2023-04-01T10:21:27.982Z,2734.00
2023-04-01T10:22:28.000Z,2930.00
2023-04-01T10:23:27.952Z,2724.00
2023-04-01T10:24:27.942Z,2451.00
2023-04-01T10:25:27.997Z,2442.00
2023-04-01T10:26:27.928Z,2580.00
2023-04-01T10:27:27.910Z,2595.00
2023-04-01T10:28:27.954Z,2477.00
2023-04-01T10:29:27.980Z,2690.00
2023-04-01T10:30:27.871Z,2415.00
2023-04-01T10:31:28.020Z,2720.00
2023-04-01T10:32:27.916Z,3021.00
2023-04-01T10:33:27.845Z,2997.00
2023-04-01T10:34:27.853Z,2640.00
2023-04-01T10:35:27.839Z,2936.00
2023-04-01T10:36:27.807Z,2584.00
2023-04-01T10:37:27.800Z,2466.00
2023-04-01T10:38:28.367Z,2369.00
2023-04-01T10:39:27.778Z,2377.00
2023-04-01T10:40:27.773Z,2604.00
2023-04-01T10:41:27.749Z,2044.00
2023-04-01T10:42:27.758Z,2304.00
2023-04-01T10:43:27.749Z,2365.00
2023-04-01T10:44:27.737Z,2031.00
2023-04-01T10:45:27.748Z,2348.00
2023-04-01T10:46:27.754Z,2155.00
2023-04-01T10:47:27.724Z,2287.00
2023-04-01T10:48:27.707Z,2576.00
2023-04-01T10:49:27.692Z,2501.00
2023-04-01T10:50:27.725Z,2643.00
2023-04-01T10:51:27.653Z,2727.00
2023-04-01T10:52:27.673Z,2634.00
2023-04-01T10:53:27.662Z,2294.00
2023-04-01T10:54:27.689Z,2835.00
2023-04-01T10:55:27.629Z,2616.00
2023-04-01T10:56:27.629Z,2785.00
2023-04-01T10:57:27.659Z,2580.00
2023-04-01T10:58:27.668Z,2606.00
2023-04-01T10:59:27.566Z,3098.00
2023-04-01T11:00:27.557Z,3380.00
2023-04-01T11:01:27.555Z,2878.00
2023-04-01T11:02:27.630Z,2717.00
2023-04-01T11:03:27.617Z,3349.00
2023-04-01T11:04:27.499Z,3408.00
2023-04-01T11:05:27.515Z,2793.00
2023-04-01T11:06:27.508Z,2428.00
2023-04-01T11:07:27.468Z,3576.00
2023-04-01T11:08:27.519Z,3714.00
2023-04-01T11:09:27.461Z,3692.00
2023-04-01T11:10:27.442Z,3403.00
2023-04-01T11:11:27.451Z,2972.00
2023-04-01T11:12:27.408Z,3273.00
2023-04-01T11:13:27.440Z,3375.00
2023-04-01T11:14:27.438Z,3163.00
2023-04-01T11:15:27.433Z,3679.00
2023-04-01T11:16:27.433Z,3466.00
2023-04-01T11:17:27.473Z,3458.00
2023-04-01T11:18:27.373Z,4313.00
2023-04-01T11:19:27.349Z,4219.00
2023-04-01T11:20:27.345Z,3494.00
2023-04-01T11:21:27.328Z,3389.00
2023-04-01T11:22:27.315Z,3598.00
2023-04-01T11:23:27.304Z,3373.00
2023-04-01T11:24:27.333Z,3337.00
2023-04-01T11:25:27.300Z,3505.00
2023-04-01T11:26:27.274Z,3861.00
2023-04-01T11:27:27.266Z,3475.00
2023-04-01T11:28:27.250Z,3252.00
2023-04-01T11:29:27.241Z,3308.00
2023-04-01T11:30:27.257Z,3349.00
2023-04-01T11:31:27.357Z,3040.00
2023-04-01T11:32:27.257Z,3073.00
2023-04-01T11:33:27.200Z,3040.00
2023-04-01T11:34:27.187Z,2886.00
2023-04-01T11:35:27.170Z,2879.00
2023-04-01T11:36:27.253Z,2893.00
2023-04-01T11:37:27.226Z,2756.00
2023-04-01T11:38:27.154Z,2720.00
2023-04-01T11:39:27.132Z,2699.00
2023-04-01T11:40:27.164Z,2922.00
2023-04-01T11:41:27.100Z,2806.00
2023-04-01T11:42:27.101Z,3018.00
2023-04-01T11:43:33.400Z,2592.00
2023-04-01T11:44:27.072Z,2946.00
2023-04-01T11:45:27.079Z,3061.00
2023-04-01T11:46:27.125Z,2981.00
2023-04-01T11:47:27.058Z,2816.00
2023-04-01T11:48:27.055Z,2785.00
2023-04-01T11:49:27.053Z,3012.00
2023-04-01T11:50:27.014Z,2944.00
2023-04-01T11:51:27.031Z,2380.00
2023-04-01T11:52:26.981Z,2287.00
2023-04-01T11:53:26.996Z,2359.00
2023-04-01T11:54:26.966Z,2252.00
2023-04-01T11:55:26.975Z,2102.00
2023-04-01T11:56:26.949Z,2186.00
2023-04-01T11:57:27.189Z,1973.00
2023-04-01T11:58:26.928Z,2261.00
2023-04-01T11:59:27.784Z,2081.00
2023-04-01T12:00:26.994Z,2047.00
2023-04-01T12:01:26.887Z,2276.00
2023-04-01T12:02:27.036Z,1887.00
2023-04-01T12:03:26.962Z,2077.00
2023-04-01T12:04:26.885Z,2182.00
2023-04-01T12:05:26.868Z,1851.00
2023-04-01T12:06:26.875Z,1937.00
2023-04-01T12:07:26.828Z,1991.00
2023-04-01T12:08:26.824Z,1796.00
2023-04-01T12:09:26.805Z,2044.00
2023-04-01T12:10:26.789Z,1973.00
2023-04-01T12:11:26.805Z,1770.00
2023-04-01T12:12:26.779Z,2161.00
2023-04-01T12:13:26.764Z,2004.00
2023-04-01T12:14:26.781Z,2074.00
2023-04-01T12:15:26.746Z,1952.00
2023-04-01T12:16:26.834Z,1795.00
2023-04-01T12:17:26.756Z,1802.00
2023-04-01T12:18:26.696Z,1646.00
2023-04-01T12:19:26.699Z,1754.00
2023-04-01T12:20:26.705Z,1978.00
2023-04-01T12:21:26.746Z,1692.00
2023-04-01T12:22:26.671Z,1593.00
2023-04-01T12:23:26.659Z,1721.00
2023-04-01T12:24:26.678Z,1947.00
2023-04-01T12:25:26.632Z,1578.00
2023-04-01T12:26:26.615Z,1731.00
2023-04-01T12:27:26.644Z,1794.00
2023-04-01T12:28:26.596Z,1664.00
2023-04-01T12:29:26.623Z,1483.00
2023-04-01T12:30:26.585Z,1577.00
2023-04-01T12:31:26.643Z,1645.00
2023-04-01T12:32:26.671Z,1558.00
2023-04-01T12:33:26.554Z,1653.00
2023-04-01T12:34:26.531Z,1606.00
2023-04-01T12:35:26.626Z,1666.00
2023-04-01T12:36:27.159Z,1741.00
2023-04-01T12:37:26.550Z,1672.00
2023-04-01T12:38:26.538Z,1588.00
2023-04-01T12:39:26.644Z,1587.00
2023-04-01T12:40:26.507Z,1628.00
2023-04-01T12:41:26.484Z,1692.00
2023-04-01T12:42:26.461Z,1780.00
2023-04-01T12:43:26.457Z,1719.00
2023-04-01T12:44:26.484Z,1742.00
2023-04-01T12:45:26.415Z,1787.00
2023-04-01T12:46:26.539Z,1679.00
2023-04-01T12:47:26.412Z,1758.00
2023-04-01T12:48:26.424Z,1880.00
2023-04-01T12:49:26.467Z,1859.00
2023-04-01T12:50:26.370Z,1702.00
2023-04-01T12:51:26.354Z,1713.00
2023-04-01T12:52:26.355Z,1788.00
2023-04-01T12:53:26.338Z,1503.00
2023-04-01T12:54:26.316Z,1496.00
2023-04-01T12:55:26.352Z,1712.00
2023-04-01T12:56:26.327Z,1701.00
2023-04-01T12:57:26.379Z,1939.00
2023-04-01T12:58:26.304Z,1805.00
2023-04-01T12:59:26.313Z,1663.00
2023-04-01T13:00:26.272Z,1609.00
2023-04-01T13:01:26.336Z,2090.00
2023-04-01T13:02:26.370Z,1884.00
2023-04-01T13:03:26.278Z,1657.00
2023-04-01T13:04:26.201Z,1450.00
2023-04-01T13:05:26.267Z,1801.00
2023-04-01T13:06:26.253Z,2131.00
2023-04-01T13:07:26.181Z,2338.00
2023-04-01T13:08:26.205Z,2378.00
2023-04-01T13:09:26.169Z,2537.00
2023-04-01T13:10:26.145Z,2555.00
2023-04-01T13:11:26.149Z,2475.00
2023-04-01T13:12:26.262Z,2716.00
2023-04-01T13:13:26.110Z,2701.00
2023-04-01T13:14:31.858Z,2567.00
2023-04-01T13:15:26.176Z,2231.00
2023-04-01T13:16:26.158Z,2301.00
2023-04-01T13:17:26.123Z,2427.00
2023-04-01T13:18:26.104Z,2344.00
2023-04-01T13:19:26.052Z,2084.00
2023-04-01T13:20:26.719Z,2049.00
2023-04-01T13:21:26.065Z,2205.00
2023-04-01T13:22:26.062Z,2083.00
2023-04-01T13:23:26.023Z,2072.00
2023-04-01T13:24:26.046Z,1979.00
2023-04-01T13:25:25.986Z,1998.00
2023-04-01T13:26:25.981Z,2274.00
2023-04-01T13:27:26.903Z,2199.00
2023-04-01T13:28:25.998Z,1970.00
2023-04-01T13:29:25.928Z,2076.00
2023-04-01T13:30:25.932Z,2326.00
2023-04-01T13:31:25.936Z,2374.00
2023-04-01T13:32:36.906Z,2378.00
2023-04-01T13:33:25.929Z,2136.00
2023-04-01T13:34:25.892Z,2149.00
2023-04-01T13:35:25.878Z,2437.00
2023-04-01T13:36:25.889Z,2577.00
2023-04-01T13:37:25.851Z,2477.00
2023-04-01T13:38:26.851Z,2364.00
2023-04-01T13:39:25.837Z,2251.00
2023-04-01T13:40:25.851Z,1948.00
2023-04-01T13:41:25.822Z,2213.00
2023-04-01T13:42:25.869Z,2049.00
2023-04-01T13:43:25.792Z,2484.00
2023-04-01T13:44:25.785Z,2233.00
2023-04-01T13:45:25.844Z,2559.00
2023-04-01T13:46:25.806Z,2465.00
2023-04-01T13:47:25.797Z,2154.00
2023-04-01T13:48:25.755Z,1981.00
2023-04-01T13:49:25.797Z,2230.00
2023-04-01T13:50:25.739Z,2434.00
2023-04-01T13:51:25.720Z,2342.00
2023-04-01T13:52:25.707Z,2330.00
2023-04-01T13:53:25.715Z,2431.00
2023-04-01T13:54:25.692Z,2103.00
2023-04-01T13:55:25.677Z,2137.00
2023-04-01T13:56:25.688Z,1960.00
2023-04-01T13:57:25.706Z,1950.00
2023-04-01T13:58:25.673Z,1746.00
2023-04-01T13:59:25.625Z,1811.00
2023-04-01T14:00:25.808Z,1798.00
2023-04-01T14:01:25.641Z,1650.00
2023-04-01T14:02:25.641Z,1682.00
2023-04-01T14:03:25.634Z,1651.00
2023-04-01T14:04:25.569Z,1341.00
2023-04-01T14:05:29.489Z,1383.00
2023-04-01T14:06:25.557Z,1228.00
2023-04-01T14:07:25.532Z,1496.00
2023-04-01T14:08:25.523Z,1223.00
2023-04-01T14:09:25.526Z,1151.00
2023-04-01T14:10:25.522Z,1077.00
2023-04-01T14:11:25.480Z,1108.00
2023-04-01T14:12:25.489Z,1134.00
2023-04-01T14:13:25.506Z,1214.00
2023-04-01T14:14:25.463Z,1102.00
2023-04-01T14:15:25.469Z,1162.00
2023-04-01T14:16:25.510Z,1045.00
2023-04-01T14:17:25.435Z,984.00
2023-04-01T14:18:25.431Z,1185.00
2023-04-01T14:19:25.413Z,1085.00
2023-04-01T14:20:25.409Z,1162.00
2023-04-01T14:21:25.404Z,992.00
2023-04-01T14:22:27.509Z,1025.00
2023-04-01T14:23:25.370Z,989.00
2023-04-01T14:24:25.355Z,1199.00
2023-04-01T14:25:25.332Z,1219.00
2023-04-01T14:26:25.435Z,1138.00
2023-04-01T14:27:25.320Z,957.00
2023-04-01T14:28:25.322Z,880.00
2023-04-01T14:29:25.287Z,952.00
2023-04-01T14:30:25.292Z,854.00
2023-04-01T14:31:25.338Z,855.00
2023-04-01T14:32:25.310Z,912.00
2023-04-01T14:33:25.262Z,1179.00
2023-04-01T14:34:25.316Z,1159.00
2023-04-01T14:35:25.268Z,805.00
2023-04-01T14:36:25.230Z,1032.00
2023-04-01T14:37:25.215Z,933.00
2023-04-01T14:38:25.883Z,939.00
2023-04-01T14:39:25.219Z,938.00
2023-04-01T14:40:25.330Z,1024.00
2023-04-01T14:41:25.194Z,1034.00
2023-04-01T14:42:25.162Z,956.00
2023-04-01T14:43:25.172Z,960.00
2023-04-01T14:44:25.173Z,1121.00
2023-04-01T14:45:25.194Z,1182.00
2023-04-01T14:46:25.192Z,952.00
2023-04-01T14:47:25.146Z,907.00
2023-04-01T14:48:25.136Z,776.00
2023-04-01T14:49:25.082Z,1017.00
2023-04-01T14:50:25.111Z,1019.00
2023-04-01T14:51:25.048Z,973.00
2023-04-01T14:52:25.084Z,968.00
2023-04-01T14:53:25.033Z,1028.00
2023-04-01T14:54:25.710Z,1028.00
2023-04-01T14:55:25.013Z,936.00
2023-04-01T14:56:25.003Z,1017.00
2023-04-01T14:57:25.120Z,1013.00
2023-04-01T14:58:24.995Z,1008.00
2023-04-01T14:59:24.985Z,934.00
2023-04-01T15:00:24.976Z,956.00
2023-04-01T15:01:24.972Z,1222.00
2023-04-01T15:02:24.975Z,997.00
2023-04-01T15:03:24.919Z,879.00
2023-04-01T15:04:24.972Z,849.00
2023-04-01T15:05:24.908Z,874.00
2023-04-01T15:06:24.906Z,828.00
2023-04-01T15:07:24.892Z,794.00
2023-04-01T15:08:24.884Z,738.00
2023-04-01T15:09:24.876Z,1037.00
2023-04-01T15:10:24.888Z,940.00
2023-04-01T15:11:24.862Z,766.00
2023-04-01T15:12:24.849Z,710.00
2023-04-01T15:13:24.825Z,801.00
2023-04-01T15:14:24.819Z,868.00
2023-04-01T15:15:24.820Z,1027.00
2023-04-01T15:16:24.848Z,1241.00
2023-04-01T15:17:24.833Z,1188.00
2023-04-01T15:18:24.831Z,1154.00
2023-04-01T15:19:24.766Z,963.00
2023-04-01T15:20:27.132Z,989.00
2023-04-01T15:21:24.774Z,987.00
2023-04-01T15:22:24.790Z,930.00
2023-04-01T15:23:24.741Z,816.00
2023-04-01T15:24:24.711Z,911.00
2023-04-01T15:25:24.728Z,975.00
2023-04-01T15:26:24.700Z,753.00
2023-04-01T15:27:24.666Z,867.00
2023-04-01T15:28:24.764Z,880.00
2023-04-01T15:29:24.690Z,796.00
2023-04-01T15:30:24.734Z,1077.00
2023-04-01T15:31:24.704Z,991.00
2023-04-01T15:32:24.682Z,764.00
2023-04-01T15:33:24.647Z,649.00
2023-04-01T15:34:24.609Z,602.00
2023-04-01T15:35:24.655Z,531.00
2023-04-01T15:36:24.650Z,496.00
2023-04-01T15:37:24.592Z,685.00
2023-04-01T15:38:24.583Z,607.00
2023-04-01T15:39:24.586Z,626.00
2023-04-01T15:40:24.581Z,545.00
2023-04-01T15:41:24.542Z,634.00
2023-04-01T15:42:24.553Z,620.00
2023-04-01T15:43:24.524Z,618.00
2023-04-01T15:44:24.496Z,589.00
2023-04-01T15:45:24.481Z,556.00
2023-04-01T15:46:24.526Z,745.00
2023-04-01T15:47:24.476Z,630.00
2023-04-01T15:48:24.485Z,717.00
2023-04-01T15:49:24.458Z,700.00
2023-04-01T15:50:24.439Z,770.00
2023-04-01T15:51:24.751Z,758.00
2023-04-01T15:52:24.404Z,734.00
2023-04-01T15:53:24.427Z,673.00
2023-04-01T15:54:24.433Z,700.00
2023-04-01T15:55:24.383Z,712.00
2023-04-01T15:56:24.408Z,658.00
2023-04-01T15:57:24.386Z,861.00
2023-04-01T15:58:24.354Z,915.00
2023-04-01T15:59:24.356Z,778.00
2023-04-01T16:00:24.356Z,728.00
2023-04-01T16:01:24.319Z,626.00
2023-04-01T16:02:24.333Z,867.00
2023-04-01T16:03:24.400Z,742.00
2023-04-01T16:04:24.282Z,703.00
2023-04-01T16:05:24.357Z,558.00
2023-04-01T16:06:24.278Z,583.00
2023-04-01T16:07:24.289Z,647.00
2023-04-01T16:08:24.252Z,619.00
2023-04-01T16:09:24.295Z,597.00
2023-04-01T16:10:24.236Z,687.00
2023-04-01T16:11:24.196Z,679.00
2023-04-01T16:12:24.333Z,566.00
2023-04-01T16:13:24.165Z,914.00
2023-04-01T16:14:24.162Z,837.00
2023-04-01T16:15:24.166Z,1051.00
2023-04-01T16:16:24.239Z,1104.00
2023-04-01T16:17:24.184Z,841.00